Latest Weather Observations for Ngukurr AWS

IDD60801

Issued at 9:35 pm CST Saturday 20 September 2014 (issued every 30 minutes, with the page automatically refreshed every 10 minutes)

About weather observations | Map of weather stations | Latest weather observations for NT | Other Formats
Station Details ID: 014299 Name: NGUKURR AIRPORT Lat: -14.72 Lon: 134.75 Height: 14.46 m
Data from the previous 72 hours. | See also: Recent months at Ngukurr AWS
Date/Time
CST
Temp
°C
App
Temp
°C
Dew
Point
Rel
Hum
%
Delta-T
°C
Wind Press
QNH
hPa
Press
MSL
hPa
Rain
since 9 am
mm
Dir
 
Spd
km/h
Gust
km/h
Spd
kts
Gust
kts
20/09:30pm 21.9 20.4 3.1 29 9.0 SE 0 0 0 0 1013.8 1013.7 0.0
20/09:00pm 23.1 21.2 2.6 26 9.8 S 2 6 1 3 1013.7 1013.6 0.0
20/08:30pm 25.1 23.4 1.9 22 11.1 CALM 0 0 0 0 1013.5 1013.4 0.0
20/08:00pm 26.7 24.1 1.2 19 12.1 E 4 4 2 2 1013.2 1013.1 0.0
20/07:30pm 28.6 25.9 0.3 16 13.5 E 4 7 2 4 1012.7 1012.6 0.0
20/07:00pm 30.2 26.9 -0.2 14 14.5 E 7 9 4 5 1012.3 1012.2 0.0
20/06:30pm 31.8 27.8 -2.3 11 15.9 E 9 15 5 8 1011.9 1011.8 0.0
20/06:00pm 33.5 27.4 -3.7 9 17.1 ENE 19 26 10 14 1011.5 1011.4 0.0
20/05:30pm 34.5 28.5 -2.9 9 17.6 ENE 19 30 10 16 1011.1 1011.0 0.0
20/05:00pm 35.4 29.7 -3.8 8 18.3 E 17 26 9 14 1011.1 1011.0 0.0
20/04:30pm 35.6 29.0 -3.7 8 18.4 ENE 22 35 12 19 1011.1 1011.0 0.0
20/04:00pm 35.9 29.3 -3.5 8 18.5 E 22 32 12 17 1011.1 1011.0 0.0
20/03:30pm 36.5 29.9 -3.0 8 18.8 E 22 33 12 18 1011.2 1011.1 0.0
20/03:00pm 36.4 29.6 -4.9 7 19.0 E 22 33 12 18 1011.5 1011.4 0.0
20/02:30pm 36.9 30.4 -2.7 8 19.0 E 22 35 12 19 1011.7 1011.6 0.0
20/02:00pm 36.4 29.1 -3.1 8 18.7 E 26 39 14 21 1012.4 1012.3 0.0
20/01:30pm 37.0 29.9 -4.4 7 19.3 E 24 33 13 18 1012.6 1012.5 0.0
20/01:00pm 37.2 30.5 -4.3 7 19.4 E 22 39 12 21 1013.0 1012.9 0.0
20/12:30pm 36.4 30.6 -1.5 9 18.4 ENE 19 24 10 13 1013.7 1013.6 0.0
20/12:00pm 36.4 31.2 2.5 12 17.6 ENE 19 24 10 13 1014.2 1014.1 0.0
20/11:30am 36.1 29.7 1.0 11 17.7 ESE 24 32 13 17 1015.0 1014.9 0.0
20/11:00am 34.9 31.2 6.2 17 15.6 E 15 28 8 15 1015.5 1015.4 0.0
20/10:30am 32.7 31.0 11.3 27 12.5 ENE 11 19 6 10 1015.9 1015.8 0.0
20/10:00am 30.0 30.7 14.5 38 9.4 E 4 9 2 5 1016.1 1016.0 0.0
20/09:30am 27.9 29.5 16.8 50 6.9 ENE 4 7 2 4 1016.3 1016.2 0.0
20/09:00am 26.3 28.7 18.9 63 4.7 E 4 6 2 3 1016.3 1016.2 0.0
20/08:30am 24.4 26.9 19.0 72 3.4 E 4 4 2 2 1016.3 1016.2 0.0
20/08:00am 22.0 24.6 18.4 80 2.3 NNE 2 6 1 3 1016.2 1016.1 0.0
20/07:30am 19.5 21.2 16.3 82 1.9 N 2 4 1 2 1016.0 1015.9 0.0
20/07:00am 17.0 18.6 14.8 87 1.3 CALM 0 0 0 0 1015.6 1015.5 0.0
20/06:30am 15.4 16.1 12.3 82 1.7 CALM 0 0 0 0 1015.1 1015.0 0.0
20/06:00am 15.2 16.0 12.7 85 1.4 S 0 0 0 0 1014.7 1014.6 0.0
20/05:30am 15.6 16.3 12.2 80 1.9 CALM 0 0 0 0 1014.4 1014.3 0.0
20/05:00am 16.0 16.8 12.4 79 2.0 CALM 0 0 0 0 1013.9 1013.8 0.0
20/04:30am 16.5 17.6 13.6 83 1.6 CALM 0 0 0 0 1013.7 1013.6 0.0
20/04:00am 16.7 17.4 12.3 75 2.4 CALM 0 0 0 0 1013.8 1013.7 0.0
20/03:30am 17.5 18.4 13.0 75 2.5 CALM 0 0 0 0 1013.9 1013.8 0.0
20/03:00am 17.7 18.5 12.4 71 2.9 CALM 0 0 0 0 1013.9 1013.8 0.0
20/02:30am 18.5 19.4 15.2 81 1.9 S 4 6 2 3 1014.0 1013.9 0.0
20/02:00am 18.3 18.6 14.6 79 2.1 SSE 6 6 3 3 1014.3 1014.2 0.0
20/01:30am 18.3 18.5 13.2 72 2.9 S 4 6 2 3 1014.4 1014.3 0.0
20/01:00am 18.8 19.6 13.6 72 3.0 SE 2 4 1 2 1014.6 1014.5 0.0
20/12:30am 19.3 20.3 13.3 68 3.4 NE 0 0 0 0 1014.8 1014.7 0.0
20/12:00am 20.0 20.8 12.5 62 4.2 NE 0 0 0 0 1015.1 1015.0 0.0
 
Date/Time
CST
Temp
°C
App
Temp
°C
Dew
Point
Rel
Hum
%
Delta-T
°C
Wind Press
QNH
hPa
Press
MSL
hPa
Rain
since 9 am
mm
Dir
 
Spd
km/h
Gust
km/h
Spd
kts
Gust
kts
19/11:30pm 20.7 21.4 12.1 58 4.8 CALM 0 0 0 0 1015.1 1015.0 0.0
19/11:00pm 21.4 22.4 13.3 60 4.6 CALM 0 0 0 0 1015.2 1015.1 0.0
19/10:30pm 21.6 22.4 12.5 56 5.2 CALM 0 0 0 0 1015.2 1015.1 0.0
19/10:00pm 22.9 22.7 11.9 50 6.2 ENE 4 6 2 3 1015.2 1015.1 0.0
19/09:30pm 23.3 23.0 11.4 47 6.7 ENE 4 4 2 2 1015.2 1015.1 0.0
19/09:00pm 24.9 25.0 11.5 43 7.6 ENE 2 6 1 3 1015.1 1015.0 0.0
19/08:30pm 26.3 25.1 11.6 40 8.4 E 9 13 5 7 1014.9 1014.8 0.0
19/08:00pm 27.1 25.8 9.9 34 9.6 E 7 11 4 6 1014.7 1014.6 0.0
19/07:30pm 28.2 25.9 7.4 27 11.2 E 9 11 5 6 1014.2 1014.1 0.0
19/07:00pm 29.4 26.3 5.5 22 12.5 ENE 11 15 6 8 1013.7 1013.6 0.0
19/06:30pm 30.5 26.2 3.5 18 13.7 ENE 15 24 8 13 1013.3 1013.2 0.0
19/06:00pm 31.6 26.8 2.7 16 14.6 ENE 17 28 9 15 1012.9 1012.8 0.0
19/05:30pm 32.4 27.2 2.5 15 15.1 ENE 19 28 10 15 1012.6 1012.5 0.0
19/05:00pm 33.1 27.6 3.9 16 15.2 ENE 22 33 12 18 1012.4 1012.3 0.0
19/04:30pm 33.7 27.7 3.5 15 15.7 E 24 35 13 19 1012.3 1012.2 0.0
19/04:00pm 34.1 27.8 1.8 13 16.3 E 24 33 13 18 1012.3 1012.2 0.0
19/03:30pm 34.2 27.7 2.9 14 16.1 E 26 35 14 19 1012.2 1012.1 0.0
19/03:00pm 34.9 28.4 2.4 13 16.7 E 26 35 14 19 1012.5 1012.4 0.0
19/02:30pm 35.4 29.1 1.7 12 17.2 E 24 39 13 21 1012.7 1012.6 0.0
19/02:00pm 35.5 28.7 0.6 11 17.5 E 26 39 14 21 1013.1 1013.0 0.0
19/01:30pm 35.9 29.1 0.9 11 17.6 E 26 43 14 23 1013.5 1013.4 0.0
19/01:00pm 35.9 28.1 -0.5 10 17.9 E 30 41 16 22 1013.9 1013.8 0.0
19/12:30pm 35.8 28.8 2.0 12 17.3 E 28 41 15 22 1014.1 1014.0 0.0
19/12:00pm 35.8 30.9 5.1 15 16.5 E 20 35 11 19 1014.6 1014.5 0.0
19/11:30am 34.8 30.9 7.0 18 15.3 E 17 32 9 17 1015.2 1015.1 0.0
19/11:00am 33.1 32.2 12.7 29 12.2 ENE 9 17 5 9 1015.8 1015.7 0.0
19/10:30am 29.8 31.9 17.3 47 7.9 E 2 7 1 4 1016.4 1016.3 0.0
19/10:00am 27.3 30.0 19.4 62 5.1 E 4 7 2 4 1016.9 1016.8 0.0
19/09:30am 24.4 27.8 20.9 81 2.3 S 4 7 2 4 1017.1 1017.0 0.0
19/09:00am 21.9 25.4 21.1 95 0.5 SE 4 7 2 4 1017.2 1017.1 0.0
19/08:30am 20.9 24.1 20.6 98 0.2 SE 4 7 2 4 1017.0 1016.9 0.0
19/08:00am 20.5 23.9 20.2 98 0.2 S 2 6 1 3 1016.7 1016.6 0.0
19/07:30am 20.6 24.1 20.3 98 0.2 SSE 2 4 1 2 1016.3 1016.2 0.0
19/07:00am 20.6 24.5 20.3 98 0.2 CALM 0 4 0 2 1015.8 1015.7 0.0
19/06:30am 20.6 24.1 20.3 98 0.2 SW 2 4 1 2 1015.5 1015.4 0.0
19/06:00am 20.2 23.9 19.9 98 0.2 CALM 0 0 0 0 1015.1 1015.0 0.0
19/05:30am 20.3 23.8 19.6 96 0.4 CALM 0 0 0 0 1014.8 1014.7 0.0
19/05:00am 20.7 24.0 19.0 90 1.1 CALM 0 0 0 0 1014.6 1014.5 0.0
19/04:30am 20.5 22.8 16.7 79 2.3 CALM 0 0 0 0 1014.4 1014.3 0.0
19/04:00am 20.0 22.6 17.6 86 1.5 CALM 0 0 0 0 1014.5 1014.4 0.0
19/03:30am 18.4 20.0 16.0 86 1.4 SSW 2 4 1 2 1014.6 1014.5 0.0
19/03:00am 18.3 19.5 15.0 81 1.9 S 2 4 1 2 1014.7 1014.6 0.0
19/02:30am 18.8 20.2 15.5 81 1.9 SSE 2 2 1 1 1014.8 1014.7 0.0
19/02:00am 19.0 20.4 15.5 80 2.1 SE 2 4 1 2 1015.0 1014.9 0.0
19/01:30am 19.3 21.2 15.8 80 2.1 CALM 0 0 0 0 1015.4 1015.3 0.0
19/01:00am 18.8 19.6 12.5 67 3.5 CALM 0 0 0 0 1015.6 1015.5 0.0
19/12:30am 19.0 19.4 12.5 66 3.6 NNE 2 4 1 2 1015.8 1015.7 0.0
19/12:00am 19.1 19.7 11.9 63 4.0 CALM 0 0 0 0 1015.8 1015.7 0.0
 
Date/Time
CST
Temp
°C
App
Temp
°C
Dew
Point
Rel
Hum
%
Delta-T
°C
Wind Press
QNH
hPa
Press
MSL
hPa
Rain
since 9 am
mm
Dir
 
Spd
km/h
Gust
km/h
Spd
kts
Gust
kts
18/11:30pm 19.7 20.3 12.0 61 4.3 CALM 0 0 0 0 1015.9 1015.8 0.0
18/11:00pm 20.0 20.3 11.0 56 4.9 CALM 0 0 0 0 1016.0 1015.9 0.0
18/10:30pm 20.5 20.2 10.0 51 5.6 SE 2 4 1 2 1015.8 1015.7 0.0
18/10:00pm 21.3 21.4 10.2 49 6.0 CALM 0 0 0 0 1015.8 1015.7 0.0
18/09:30pm 22.4 21.9 9.2 43 7.1 E 2 4 1 2 1015.6 1015.5 0.0
18/09:00pm 23.6 22.2 8.8 39 7.9 SE 6 7 3 4 1015.3 1015.2 0.0
18/08:30pm 24.8 23.0 7.0 32 9.3 ESE 6 6 3 3 1015.0 1014.9 0.0
18/08:00pm 27.4 25.6 9.3 32 10.0 ENE 9 11 5 6 1014.7 1014.6 0.0
18/07:30pm 27.8 25.9 6.6 26 11.2 ENE 6 9 3 5 1014.4 1014.3 0.0
18/07:00pm 29.1 26.6 4.6 21 12.6 ENE 7 11 4 6 1014.0 1013.9 0.0
18/06:30pm 30.3 27.0 2.5 17 13.9 ENE 9 15 5 8 1013.7 1013.6 0.0
18/06:00pm 31.8 26.7 1.0 14 15.1 ENE 17 24 9 13 1013.4 1013.3 0.0
18/05:30pm 32.8 27.0 -0.3 12 16.0 E 20 30 11 16 1013.0 1012.9 0.0
18/05:00pm 33.8 28.3 1.6 13 16.2 ENE 20 30 11 16 1013.0 1012.9 0.0
18/04:30pm 34.0 29.2 5.5 17 15.3 E 20 32 11 17 1012.9 1012.8 0.0
18/04:00pm 34.6 28.4 2.2 13 16.5 E 24 33 13 18 1013.0 1012.9 0.0
18/03:30pm 34.7 28.9 4.3 15 16.1 E 24 35 13 19 1013.3 1013.2 0.0
18/03:00pm 34.8 27.9 2.3 13 16.6 E 28 39 15 21 1013.8 1013.7 0.0
18/02:30pm 35.0 27.3 0.2 11 17.2 E 30 46 16 25 1014.0 1013.9 0.0
18/02:00pm 34.2 28.1 6.5 18 15.1 E 28 43 15 23 1014.4 1014.3 0.0
18/01:30pm 34.1 27.2 7.2 19 14.8 ENE 33 46 18 25 1014.7 1014.6 0.0
18/01:11pm 34.0 27.1 6.3 18 15.1 NE 32 43 17 23 1014.9 1014.8 0.0
18/01:00pm 34.6 27.0 7.6 19 15.0 E 37 50 20 27 1014.9 1014.8 0.0
18/12:43pm 35.9 30.1 7.9 18 15.7 E 28 46 15 25 1015.0 1014.9 0.0
18/12:30pm 35.6 29.7 7.6 18 15.6 E 28 41 15 22 1015.0 1014.9 0.0
18/12:00pm 35.4 31.2 8.3 19 15.3 ESE 20 32 11 17 1015.7 1015.6 0.0
18/11:30am 33.9 34.0 12.8 28 12.7 ESE 4 13 2 7 1016.2 1016.1 0.0
18/11:00am 31.9 32.1 14.1 34 10.8 SE 6 13 3 7 1016.8 1016.7 0.0
18/10:30am 30.7 33.2 18.1 47 8.1 N 2 7 1 4 1017.3 1017.2 0.0
18/10:00am 27.7 30.3 19.2 60 5.5 ENE 4 7 2 4 1017.6 1017.5 0.0
18/09:30am 25.5 28.8 20.7 75 3.1 SW 4 7 2 4 1017.7 1017.6 0.0
18/09:00am 23.3 27.0 22.6 96 0.5 SSE 7 13 4 7 1017.7 1017.6 0.0
18/08:30am 21.8 25.2 21.6 99 0.1 SSE 6 9 3 5 1017.4 1017.3 0.0
18/08:00am 21.3 24.4 21.1 99 0.1 SE 6 15 3 8 1017.3 1017.2 0.0
18/07:30am 20.8 23.5 20.6 99 0.1 S 7 13 4 7 1016.8 1016.7 0.0
18/07:00am 20.5 24.4 20.3 99 0.1 CALM 0 2 0 1 1016.0 1015.9 0.0
18/06:30am 20.3 23.7 20.1 99 0.1 SSE 2 6 1 3 1015.7 1015.6 0.0
18/06:00am 20.3 23.7 20.1 99 0.1 SE 2 6 1 3 1015.4 1015.3 0.0
18/05:30am 20.2 23.2 20.0 99 0.1 SSE 4 6 2 3 1015.2 1015.1 0.0
18/05:00am 20.7 24.7 20.5 99 0.1 CALM 0 0 0 0 1014.8 1014.7 0.0
18/04:30am 20.7 24.6 20.4 98 0.2 CALM 0 0 0 0 1014.5 1014.4 0.0
18/04:00am 19.7 23.1 19.4 98 0.2 CALM 0 0 0 0 1014.5 1014.4 0.0
18/03:30am 20.3 23.6 20.0 98 0.2 S 2 4 1 2 1014.5 1014.4 0.0
18/03:00am 20.6 23.7 20.3 98 0.2 S 4 7 2 4 1014.5 1014.4 0.0
18/02:30am 20.5 23.6 20.2 98 0.2 S 4 6 2 3 1014.6 1014.5 0.0
18/02:00am 20.3 23.5 18.8 91 0.9 CALM 0 0 0 0 1014.8 1014.7 0.0
18/01:30am 20.8 23.9 20.3 97 0.3 S 4 7 2 4 1015.2 1015.1 0.0
18/01:00am 20.8 24.0 18.9 89 1.2 CALM 0 0 0 0 1015.2 1015.1 0.0
18/12:30am 21.3 24.6 19.2 88 1.3 CALM 0 0 0 0 1015.4 1015.3 0.0
18/12:00am 22.0 25.3 19.2 84 1.8 CALM 0 2 0 1 1015.4 1015.3 0.0
 
Date/Time
CST
Temp
°C
App
Temp
°C
Dew
Point
Rel
Hum
%
Delta-T
°C
Wind Press
QNH
hPa
Press
MSL
hPa
Rain
since 9 am
mm
Dir
 
Spd
km/h
Gust
km/h
Spd
kts
Gust
kts
17/11:30pm 22.8 26.1 19.2 80 2.3 CALM 0 0 0 0 1015.4 1015.3 0.0
17/11:00pm 23.2 25.8 18.5 75 3.0 ESE 2 4 1 2 1015.4 1015.3 0.0
17/10:30pm 24.1 26.6 19.0 73 3.2 SE 4 7 2 4 1015.5 1015.4 0.0
17/10:00pm 25.2 27.4 19.1 69 3.9 ESE 6 7 3 4 1015.5 1015.4 0.0

Other Formats:

Comma delimited format used in spreadsheet applications
http://www.bom.gov.au/fwo/IDD60801/IDD60801.94106.axf

JavaScript Object Notation format (JSON) in row-major order
http://www.bom.gov.au/fwo/IDD60801/IDD60801.94106.json